Time;durP1;ratioP1;P1;durP2;ratioP2;P2;SDS_P1;SDS_P2;PMS_P1;PMS_P2;Temp;Humidity;BMP_temperature;BMP_pressure;BME280_temperature;BME280_humidity;BME280_pressure;Samples;Min_cycle;Max_cycle;Signal;HPM_P1;HPM_P2
2023/12/20 00:00:05;;;;;;;;;;;;;;;1.08;85.11;99714.28;4359415;32;34995;-88
2023/12/20 00:02:35;;;;;;;;;;;;;;;1.04;83.33;99707.38;4353276;32;33861;-86
2023/12/20 00:05:05;;;;;;;;;;;;;;;1.76;81.55;99696.28;4346773;32;33350;-86
2023/12/20 00:07:35;;;;;;;;;;;;;;;1.14;82.87;99699.13;4359309;32;33844;-86
2023/12/20 00:10:04;;;;;;;;;;;;;;;1.36;82.88;99695.38;4361260;32;35830;-86
2023/12/20 00:12:34;;;;;;;;;;;;;;;0.83;84.67;99690.66;4361155;32;34570;-85
2023/12/20 00:15:03;;;;;;;;;;;;;;;0.31;86.69;99691.81;4353836;32;33491;-87
2023/12/20 00:17:35;;;;;;;;;;;;;;;1.09;85.16;99687.03;4337452;32;34614;-86
2023/12/20 00:20:10;;;;;;;;;;;;;;;0.94;84.55;99688.37;4350232;32;33050;-85
2023/12/20 00:22:40;;;;;;;;;;;;;;;1.44;82.83;99677.66;4348529;32;33825;-86
2023/12/20 00:25:11;;;;;;;;;;;;;;;1.83;80.85;99676.84;4357520;32;33455;-86
2023/12/20 00:27:39;;;;;;;;;;;;;;;2.08;79.71;99675.69;4362102;32;33820;-85
2023/12/20 00:30:12;;;;;;;;;;;;;;;1.69;80.86;99669.75;4351154;32;34673;-86
2023/12/20 00:32:46;;;;;;;;;;;;;;;1.81;80.97;99658.03;4357097;32;34207;-88
2023/12/20 00:35:15;;;;;;;;;;;;;;;1.99;80.40;99667.81;4351952;32;33989;-85
2023/12/20 00:37:45;;;;;;;;;;;;;;;2.14;79.69;99658.72;4352367;32;34189;-85
2023/12/20 00:40:15;;;;;;;;;;;;;;;1.80;79.63;99651.19;4369367;32;33863;-85
2023/12/20 00:42:43;;;;;;;;;;;;;;;1.83;81.23;99653.81;4372795;32;34481;-86
2023/12/20 00:45:18;;;;;;;;;;;;;;;2.14;79.09;99655.31;4357533;32;33461;-86
2023/12/20 00:47:47;;;;;;;;;;;;;;;1.98;80.51;99650.72;4358562;32;33303;-86
2023/12/20 00:50:19;;;;;;;;;;;;;;;2.20;79.44;99640.09;4346048;32;34857;-84
2023/12/20 00:52:49;;;;;;;;;;;;;;;1.65;80.83;99646.62;4354897;32;34114;-87
2023/12/20 00:55:20;;;;;;;;;;;;;;;1.84;80.47;99640.22;4362775;32;32862;-85
2023/12/20 00:57:49;;;;;;;;;;;;;;;1.60;80.92;99632.88;4355137;32;33948;-87
2023/12/20 01:00:18;;;;;;;;;;;;;;;1.57;82.50;99615.78;4355096;32;34185;-84
2023/12/20 01:02:51;;;;;;;;;;;;;;;1.87;79.55;99624.91;4353384;32;33831;-85
2023/12/20 01:05:23;;;;;;;;;;;;;;;1.54;81.12;99614.81;4357473;32;33838;-86
2023/12/20 01:07:53;;;;;;;;;;;;;;;1.96;80.63;99621.66;4364688;32;33949;-84
2023/12/20 01:10:27;;;;;;;;;;;;;;;2.00;80.08;99610.66;4353750;32;33462;-88
2023/12/20 01:12:56;;;;;;;;;;;;;;;1.81;80.53;99602.66;4355476;32;35123;-84
2023/12/20 01:15:25;;;;;;;;;;;;;;;1.87;80.17;99600.19;4365829;32;33496;-84
2023/12/20 01:17:52;;;;;;;;;;;;;;;1.27;81.74;99598.91;4367997;32;33636;-84
2023/12/20 01:20:28;;;;;;;;;;;;;;;1.77;80.97;99597.44;4369234;32;33534;-85
2023/12/20 01:22:58;;;;;;;;;;;;;;;1.87;80.07;99596.78;4363131;32;34182;-85
2023/12/20 01:25:27;;;;;;;;;;;;;;;2.11;79.30;99583.59;4359134;32;33184;-83
2023/12/20 01:27:56;;;;;;;;;;;;;;;1.62;80.52;99580.94;4361886;32;33379;-85
2023/12/20 01:30:29;;;;;;;;;;;;;;;1.83;80.45;99574.53;4374122;32;33850;-85
2023/12/20 01:32:58;;;;;;;;;;;;;;;1.68;79.89;99577.62;4367844;32;34406;-87
2023/12/20 01:35:28;;;;;;;;;;;;;;;1.67;80.99;99568.25;4366438;32;33767;-84
2023/12/20 01:37:58;;;;;;;;;;;;;;;1.79;80.59;99565.94;4356879;32;33009;-85
2023/12/20 01:40:27;;;;;;;;;;;;;;;1.57;81.12;99562.09;4375357;32;34078;-84
2023/12/20 01:43:00;;;;;;;;;;;;;;;2.03;79.50;99560.44;4370825;32;34496;-86
2023/12/20 01:45:32;;;;;;;;;;;;;;;1.94;79.76;99561.97;4347003;32;32996;-85
2023/12/20 01:48:02;;;;;;;;;;;;;;;1.75;80.80;99556.47;4366727;32;33462;-87
2023/12/20 01:50:36;;;;;;;;;;;;;;;1.59;80.29;99555.28;4364230;32;33422;-84
2023/12/20 01:53:06;;;;;;;;;;;;;;;1.76;80.06;99547.94;4371081;32;34586;-85
2023/12/20 01:55:36;;;;;;;;;;;;;;;1.95;79.31;99549.19;4355590;32;33013;-86
2023/12/20 01:58:04;;;;;;;;;;;;;;;1.95;79.67;99543.22;4348688;32;33466;-86
2023/12/20 02:00:41;;;;;;;;;;;;;;;1.17;81.41;99525.44;4361581;32;34442;-84
2023/12/20 02:03:10;;;;;;;;;;;;;;;1.51;81.27;99518.47;4355481;32;35192;-84
2023/12/20 02:05:39;;;;;;;;;;;;;;;1.57;80.07;99521.19;4346691;32;33203;-84
2023/12/20 02:08:09;;;;;;;;;;;;;;;1.79;80.25;99519.00;4348623;32;33645;-88
2023/12/20 02:10:37;;;;;;;;;;;;;;;1.97;79.77;99506.59;4356092;32;34347;-85
2023/12/20 02:13:07;;;;;;;;;;;;;;;1.94;79.01;99509.09;4355460;32;34165;-83
2023/12/20 02:15:39;;;;;;;;;;;;;;;2.21;78.57;99505.31;4360492;32;33430;-85
2023/12/20 02:18:08;;;;;;;;;;;;;;;1.10;82.45;99513.34;4345695;32;32951;-84
2023/12/20 02:20:43;;;;;;;;;;;;;;;1.56;80.97;99501.53;4349079;32;35002;-84
2023/12/20 02:23:13;;;;;;;;;;;;;;;1.60;80.84;99500.78;4341435;33;33887;-87
2023/12/20 02:25:45;;;;;;;;;;;;;;;1.62;80.78;99499.13;4345333;33;33100;-84
2023/12/20 02:28:14;;;;;;;;;;;;;;;1.65;79.82;99491.50;4346458;33;33677;-84
2023/12/20 02:30:42;;;;;;;;;;;;;;;1.84;79.79;99486.75;4333403;32;34470;-86
2023/12/20 02:33:12;;;;;;;;;;;;;;;1.63;81.33;99485.47;4356232;32;34866;-84
2023/12/20 02:35:42;;;;;;;;;;;;;;;1.94;79.60;99487.78;4355904;32;33590;-86
2023/12/20 02:38:18;;;;;;;;;;;;;;;0.84;83.02;99490.63;4360601;32;34338;-84
2023/12/20 02:40:47;;;;;;;;;;;;;;;1.49;80.79;99486.91;4356122;32;34083;-85
2023/12/20 02:43:20;;;;;;;;;;;;;;;1.92;79.48;99480.06;4355820;32;32849;-83
2023/12/20 02:45:49;;;;;;;;;;;;;;;1.54;80.05;99475.06;4369829;32;32969;-86
2023/12/20 02:48:18;;;;;;;;;;;;;;;1.74;79.96;99457.56;4364086;32;35345;-84
2023/12/20 02:50:46;;;;;;;;;;;;;;;1.68;79.53;99463.41;4365254;32;34175;-84
2023/12/20 02:53:20;;;;;;;;;;;;;;;1.44;79.95;99460.41;4360247;32;34032;-84
2023/12/20 02:55:48;;;;;;;;;;;;;;;1.64;79.18;99453.09;4355197;32;32791;-83
2023/12/20 02:58:18;;;;;;;;;;;;;;;1.61;79.17;99453.06;4358488;32;33469;-86
2023/12/20 03:00:49;;;;;;;;;;;;;;;1.74;78.88;99446.47;4364810;32;34129;-84
2023/12/20 03:03:20;;;;;;;;;;;;;;;1.79;78.27;99437.16;4344952;32;33264;-83
2023/12/20 03:05:59;;;;;;;;;;;;;;;1.74;78.76;99442.22;4372470;32;33412;-84
2023/12/20 03:08:29;;;;;;;;;;;;;;;1.94;78.26;99454.50;4357593;32;33170;-84
2023/12/20 03:11:05;;;;;;;;;;;;;;;1.97;78.70;99447.75;4355131;32;34039;-84
2023/12/20 03:13:39;;;;;;;;;;;;;;;1.98;78.29;99449.47;4360437;32;34668;-84
2023/12/20 03:16:09;;;;;;;;;;;;;;;2.14;77.69;99446.31;4368149;32;34068;-84
2023/12/20 03:18:40;;;;;;;;;;;;;;;1.47;80.13;99448.56;4354521;32;33267;-86
2023/12/20 03:21:08;;;;;;;;;;;;;;;1.90;78.72;99443.34;4342189;32;33024;-84
2023/12/20 03:23:38;;;;;;;;;;;;;;;2.20;77.41;99449.81;4364175;32;33887;-86
2023/12/20 03:26:08;;;;;;;;;;;;;;;1.97;78.40;99434.94;4348503;32;32742;-85
2023/12/20 03:28:37;;;;;;;;;;;;;;;1.84;79.30;99445.81;4368635;32;33796;-87
2023/12/20 03:31:07;;;;;;;;;;;;;;;2.12;77.65;99437.75;4363206;32;35009;-87
2023/12/20 03:33:36;;;;;;;;;;;;;;;2.00;77.67;99446.94;4365973;32;34071;-86
2023/12/20 03:36:08;;;;;;;;;;;;;;;2.07;77.79;99443.66;4365638;32;34148;-86
2023/12/20 03:38:44;;;;;;;;;;;;;;;1.46;79.93;99458.72;4368507;32;33979;-84
2023/12/20 03:41:13;;;;;;;;;;;;;;;1.57;79.72;99453.81;4354134;32;34100;-84
2023/12/20 03:43:47;;;;;;;;;;;;;;;1.65;78.95;99455.69;4355970;32;33498;-83
2023/12/20 03:46:15;;;;;;;;;;;;;;;1.69;79.28;99443.81;4369669;32;33365;-83
2023/12/20 03:48:44;;;;;;;;;;;;;;;1.68;78.98;99449.78;4367573;32;34160;-86
2023/12/20 03:51:15;;;;;;;;;;;;;;;1.53;79.40;99452.91;4367477;32;33871;-85
2023/12/20 03:53:43;;;;;;;;;;;;;;;2.00;78.14;99444.37;4347819;32;33849;-87
2023/12/20 03:56:19;;;;;;;;;;;;;;;2.09;77.68;99437.72;4363619;32;34159;-84
2023/12/20 04:01:23;;;;;;;;;;;;;;;2.17;77.48;99425.03;4370145;32;33826;-86
2023/12/20 04:03:53;;;;;;;;;;;;;;;1.71;78.78;99425.09;4360002;32;33849;-84
2023/12/20 04:06:21;;;;;;;;;;;;;;;1.74;79.24;99426.00;4367885;32;32897;-86
2023/12/20 04:08:50;;;;;;;;;;;;;;;2.08;77.93;99420.66;4356269;32;33864;-83
2023/12/20 04:11:22;;;;;;;;;;;;;;;1.83;78.29;99421.06;4362077;32;34961;-86
2023/12/20 04:13:55;;;;;;;;;;;;;;;1.97;78.10;99416.19;4356801;32;33945;-85
2023/12/20 04:16:24;;;;;;;;;;;;;;;1.78;78.40;99417.56;4357320;32;33101;-86
2023/12/20 04:18:54;;;;;;;;;;;;;;;1.77;78.46;99416.69;4357014;32;34848;-84
2023/12/20 04:21:24;;;;;;;;;;;;;;;1.51;79.29;99411.09;4362026;32;34999;-84
2023/12/20 04:23:55;;;;;;;;;;;;;;;1.45;81.49;99413.53;4369263;32;33735;-83
2023/12/20 04:26:29;;;;;;;;;;;;;;;1.21;80.81;99413.97;4376521;32;33095;-83
2023/12/20 04:28:58;;;;;;;;;;;;;;;1.96;78.34;99422.13;4370272;32;34032;-83
2023/12/20 04:31:28;;;;;;;;;;;;;;;1.38;80.41;99416.84;4342249;33;33542;-84
2023/12/20 04:33:58;;;;;;;;;;;;;;;1.33;81.53;99405.63;4346633;33;34379;-83
2023/12/20 04:36:30;;;;;;;;;;;;;;;1.54;79.41;99405.19;4345488;33;33487;-86
2023/12/20 04:38:59;;;;;;;;;;;;;;;1.34;80.86;99399.72;4341908;33;34496;-84
2023/12/20 04:41:32;;;;;;;;;;;;;;;1.40;81.52;99395.59;4342516;33;34586;-84
2023/12/20 04:44:06;;;;;;;;;;;;;;;1.27;81.06;99391.91;4343840;33;34204;-83
2023/12/20 04:46:35;;;;;;;;;;;;;;;1.32;80.76;99388.59;4352306;32;32816;-86
2023/12/20 04:49:03;;;;;;;;;;;;;;;1.77;78.86;99391.13;4356746;32;34505;-83
2023/12/20 04:51:34;;;;;;;;;;;;;;;1.57;79.26;99388.22;4356757;32;33611;-82
2023/12/20 04:54:03;;;;;;;;;;;;;;;1.79;79.15;99380.91;4357122;32;33744;-84
2023/12/20 04:56:36;;;;;;;;;;;;;;;1.89;77.11;99367.47;4361871;32;32669;-87
2023/12/20 04:59:08;;;;;;;;;;;;;;;1.48;78.81;99363.34;4357015;32;34678;-83
2023/12/20 05:01:37;;;;;;;;;;;;;;;1.59;79.04;99360.97;4341895;33;34186;-85
2023/12/20 05:04:08;;;;;;;;;;;;;;;1.34;80.94;99346.03;4349693;32;34826;-86
2023/12/20 05:06:37;;;;;;;;;;;;;;;1.55;78.94;99335.31;4356296;32;34097;-85
2023/12/20 05:09:06;;;;;;;;;;;;;;;1.53;79.07;99337.00;4361556;32;34012;-84
2023/12/20 05:11:42;;;;;;;;;;;;;;;1.55;78.06;99353.22;4357045;32;33235;-86
2023/12/20 05:14:13;;;;;;;;;;;;;;;1.57;78.58;99329.44;4356841;32;34188;-83
2023/12/20 05:16:42;;;;;;;;;;;;;;;1.18;79.46;99325.31;4359360;32;33834;-83
2023/12/20 05:19:11;;;;;;;;;;;;;;;1.13;80.62;99326.06;4361901;32;34350;-84
2023/12/20 05:21:41;;;;;;;;;;;;;;;1.40;78.21;99318.03;4356736;32;35195;-83
2023/12/20 05:24:11;;;;;;;;;;;;;;;1.49;78.52;99328.41;4356251;32;34994;-84
2023/12/20 05:26:43;;;;;;;;;;;;;;;1.61;77.70;99349.06;4361581;32;34115;-83
2023/12/20 05:29:12;;;;;;;;;;;;;;;1.21;79.38;99350.94;4356063;32;34074;-82
2023/12/20 05:31:42;;;;;;;;;;;;;;;1.52;78.04;99359.13;4357603;32;33411;-84
2023/12/20 05:34:20;;;;;;;;;;;;;;;2.04;75.24;99365.12;4355478;32;35018;-84
2023/12/20 05:36:49;;;;;;;;;;;;;;;1.96;75.30;99371.84;4357087;32;33480;-86
2023/12/20 05:39:23;;;;;;;;;;;;;;;1.83;76.34;99375.87;4355756;32;33932;-85
2023/12/20 05:41:53;;;;;;;;;;;;;;;1.91;76.64;99378.59;4349441;32;34726;-84
2023/12/20 05:44:22;;;;;;;;;;;;;;;2.17;75.20;99366.19;4346576;32;33748;-83
2023/12/20 05:46:51;;;;;;;;;;;;;;;1.90;76.67;99366.59;4353987;32;33299;-83
2023/12/20 05:49:19;;;;;;;;;;;;;;;1.68;76.99;99353.47;4353811;32;33609;-84
2023/12/20 05:51:51;;;;;;;;;;;;;;;1.57;77.14;99321.75;4355610;32;34136;-86
2023/12/20 05:57:02;;;;;;;;;;;;;;;1.87;75.38;99334.16;4356865;32;33471;-84
2023/12/20 05:59:33;;;;;;;;;;;;;;;1.68;76.65;99340.69;4356711;32;34606;-85
2023/12/20 06:02:05;;;;;;;;;;;;;;;1.55;78.03;99335.31;4353999;32;34845;-83
2023/12/20 06:04:34;;;;;;;;;;;;;;;1.95;75.93;99338.56;4358181;32;34202;-83
2023/12/20 06:07:03;;;;;;;;;;;;;;;1.68;76.88;99335.56;4361043;32;33778;-86
2023/12/20 06:09:36;;;;;;;;;;;;;;;1.75;76.40;99323.75;4346956;32;33094;-85
2023/12/20 06:12:13;;;;;;;;;;;;;;;1.43;76.70;99313.00;4355560;32;34139;-83
2023/12/20 06:14:43;;;;;;;;;;;;;;;1.67;76.55;99315.09;4349941;32;34961;-83
2023/12/20 06:17:12;;;;;;;;;;;;;;;2.06;75.10;99308.88;4360468;32;34661;-83
2023/12/20 06:19:44;;;;;;;;;;;;;;;1.84;76.24;99310.25;4358386;32;33760;-84
2023/12/20 06:22:13;;;;;;;;;;;;;;;1.88;76.26;99307.75;4353064;32;34369;-84
2023/12/20 06:24:42;;;;;;;;;;;;;;;2.03;75.57;99311.38;4352845;32;34656;-84
2023/12/20 06:27:20;;;;;;;;;;;;;;;2.15;74.99;99306.47;4356139;32;32591;-83
2023/12/20 06:29:49;;;;;;;;;;;;;;;1.96;76.19;99314.69;4359124;32;33784;-85
2023/12/20 06:32:25;;;;;;;;;;;;;;;1.86;76.39;99309.44;4356083;32;33327;-83
2023/12/20 06:34:53;;;;;;;;;;;;;;;2.06;75.33;99314.84;4355599;32;34033;-85
2023/12/20 06:37:25;;;;;;;;;;;;;;;2.34;73.28;99320.34;4353864;32;32656;-82
2023/12/20 06:39:57;;;;;;;;;;;;;;;2.33;72.31;99318.66;4341024;33;34767;-82
2023/12/20 06:42:28;;;;;;;;;;;;;;;2.20;73.42;99330.41;4345953;33;34992;-85
2023/12/20 06:45:01;;;;;;;;;;;;;;;1.84;73.41;99336.69;4339901;33;33794;-83
2023/12/20 06:47:30;;;;;;;;;;;;;;;1.93;73.01;99351.31;4351929;32;32856;-82
2023/12/20 06:50:01;;;;;;;;;;;;;;;1.68;73.20;99361.13;4355458;32;33466;-82
2023/12/20 06:52:31;;;;;;;;;;;;;;;1.58;73.50;99364.38;4360043;32;33496;-82
2023/12/20 06:55:00;;;;;;;;;;;;;;;1.21;75.30;99366.25;4347165;32;32791;-82
2023/12/20 06:57:31;;;;;;;;;;;;;;;1.01;76.25;99359.88;4357842;32;33976;-82
2023/12/20 07:00:05;;;;;;;;;;;;;;;1.16;76.60;99356.75;4355279;32;34196;-82
2023/12/20 07:02:34;;;;;;;;;;;;;;;1.07;76.45;99360.03;4351823;32;34736;-81
2023/12/20 07:05:04;;;;;;;;;;;;;;;1.06;76.99;99359.16;4347498;33;34042;-82
2023/12/20 07:07:33;;;;;;;;;;;;;;;1.04;77.28;99365.09;4349241;32;33049;-84
2023/12/20 07:10:01;;;;;;;;;;;;;;;1.04;77.23;99365.94;4357093;32;33724;-82
2023/12/20 07:12:35;;;;;;;;;;;;;;;0.93;78.07;99362.28;4355172;32;34728;-83
2023/12/20 07:15:07;;;;;;;;;;;;;;;1.16;77.61;99355.09;4360181;32;34177;-82
2023/12/20 07:17:37;;;;;;;;;;;;;;;1.39;76.67;99350.41;4361964;32;33166;-80
2023/12/20 07:20:15;;;;;;;;;;;;;;;1.05;76.57;99339.53;4355766;32;34183;-82
2023/12/20 07:22:43;;;;;;;;;;;;;;;1.06;77.43;99342.94;4357649;32;34085;-84
2023/12/20 07:25:16;;;;;;;;;;;;;;;1.18;76.74;99350.84;4357660;32;34727;-83
2023/12/20 07:27:46;;;;;;;;;;;;;;;1.01;77.55;99358.19;4362155;32;32883;-82
2023/12/20 07:30:16;;;;;;;;;;;;;;;1.05;78.00;99359.13;4357133;32;32979;-82
2023/12/20 07:32:45;;;;;;;;;;;;;;;1.03;78.12;99350.56;4356879;32;34464;-84
2023/12/20 07:35:14;;;;;;;;;;;;;;;1.10;77.94;99349.84;4357103;32;34528;-81
2023/12/20 07:37:43;;;;;;;;;;;;;;;1.30;76.50;99354.47;4354561;32;31858;-82
2023/12/20 07:40:18;;;;;;;;;;;;;;;1.20;76.97;99356.00;4361252;32;33704;-83
2023/12/20 07:42:48;;;;;;;;;;;;;;;1.11;78.16;99355.81;4354363;32;34274;-82
2023/12/20 07:45:19;;;;;;;;;;;;;;;1.23;78.02;99351.81;4359551;32;34153;-83
2023/12/20 07:47:49;;;;;;;;;;;;;;;1.42;77.43;99354.69;4357899;32;34017;-80
2023/12/20 07:50:18;;;;;;;;;;;;;;;1.45;77.55;99352.19;4360759;32;35893;-82
2023/12/20 07:52:47;;;;;;;;;;;;;;;1.53;75.71;99355.75;4357105;32;33871;-83
2023/12/20 07:55:15;;;;;;;;;;;;;;;1.44;76.53;99348.78;4355923;32;34034;-81
2023/12/20 07:57:49;;;;;;;;;;;;;;;1.56;74.77;99345.59;4346867;32;33332;-84
2023/12/20 08:00:19;;;;;;;;;;;;;;;1.33;75.53;99345.19;4348156;32;34118;-83
2023/12/20 08:02:51;;;;;;;;;;;;;;;1.32;76.15;99342.59;4361732;32;33724;-83
2023/12/20 08:05:27;;;;;;;;;;;;;;;1.32;76.72;99337.47;4356703;32;34765;-82
2023/12/20 08:07:55;;;;;;;;;;;;;;;1.37;77.61;99335.88;4355092;32;33719;-81
2023/12/20 08:10:24;;;;;;;;;;;;;;;1.49;77.30;99328.41;4354774;32;33626;-83
2023/12/20 08:12:54;;;;;;;;;;;;;;;1.53;77.30;99325.09;4360734;32;34580;-81
2023/12/20 08:15:28;;;;;;;;;;;;;;;1.90;76.74;99330.81;4357962;32;36088;-82
2023/12/20 08:17:58;;;;;;;;;;;;;;;2.26;74.66;99329.63;4352254;32;32493;-83
2023/12/20 08:20:28;;;;;;;;;;;;;;;2.10;75.64;99336.22;4357191;32;33930;-84
2023/12/20 08:23:10;;;;;;;;;;;;;;;2.08;76.11;99333.66;4356371;32;34024;-84
2023/12/20 08:25:43;;;;;;;;;;;;;;;2.20;75.82;99329.53;4359457;32;34503;-83
2023/12/20 08:28:22;;;;;;;;;;;;;;;2.39;75.43;99334.06;4361400;32;32869;-81
2023/12/20 08:30:54;;;;;;;;;;;;;;;2.38;75.77;99340.03;4356584;32;34867;-81
2023/12/20 08:33:23;;;;;;;;;;;;;;;2.60;74.12;99346.31;4356107;32;33760;-82
2023/12/20 08:35:54;;;;;;;;;;;;;;;2.46;74.75;99335.88;4359931;32;34175;-84
2023/12/20 08:38:22;;;;;;;;;;;;;;;2.55;74.91;99341.12;4360847;32;32956;-83
2023/12/20 08:43:26;;;;;;;;;;;;;;;2.64;74.89;99339.56;4348716;32;34612;-82
2023/12/20 08:46:00;;;;;;;;;;;;;;;2.67;74.90;99343.00;4357977;32;35135;-82
2023/12/20 08:48:29;;;;;;;;;;;;;;;2.90;72.42;99342.41;4355167;32;33930;-83
2023/12/20 08:50:58;;;;;;;;;;;;;;;2.92;70.59;99339.06;4361026;32;33674;-84
2023/12/20 08:53:27;;;;;;;;;;;;;;;2.63;71.66;99348.06;4354553;32;34797;-84
2023/12/20 08:56:01;;;;;;;;;;;;;;;2.43;73.01;99346.09;4356512;32;33621;-82
2023/12/20 08:58:31;;;;;;;;;;;;;;;2.77;71.67;99342.25;4355177;32;32825;-84
2023/12/20 09:01:00;;;;;;;;;;;;;;;2.58;71.39;99340.31;4359200;32;34068;-81
2023/12/20 09:03:31;;;;;;;;;;;;;;;2.45;72.70;99352.09;4355964;32;34564;-81
2023/12/20 09:06:00;;;;;;;;;;;;;;;2.58;71.83;99348.00;4355547;32;34012;-82
2023/12/20 09:08:33;;;;;;;;;;;;;;;2.44;72.73;99350.38;4348573;32;32581;-84
2023/12/20 09:11:03;;;;;;;;;;;;;;;2.68;72.73;99348.97;4355324;32;33843;-82
2023/12/20 09:13:34;;;;;;;;;;;;;;;2.74;72.60;99349.06;4359879;32;34513;-82
2023/12/20 09:16:04;;;;;;;;;;;;;;;2.75;72.49;99343.97;4356877;32;34859;-84
2023/12/20 09:18:36;;;;;;;;;;;;;;;2.73;73.14;99331.97;4356129;32;33082;-81
2023/12/20 09:21:05;;;;;;;;;;;;;;;2.75;73.74;99332.84;4354074;32;34186;-82
2023/12/20 09:23:37;;;;;;;;;;;;;;;2.96;73.13;99330.53;4356525;32;34077;-82
2023/12/20 09:26:09;;;;;;;;;;;;;;;3.13;72.39;99324.75;4357734;32;34226;-84
2023/12/20 09:28:40;;;;;;;;;;;;;;;2.90;73.23;99320.25;4359210;32;33817;-82
2023/12/20 09:31:12;;;;;;;;;;;;;;;2.93;72.75;99314.28;4356191;32;33478;-84
2023/12/20 09:33:40;;;;;;;;;;;;;;;3.09;72.38;99311.03;4349531;32;33534;-84
2023/12/20 09:36:13;;;;;;;;;;;;;;;3.18;72.20;99300.87;4356840;32;33924;-83
2023/12/20 09:38:42;;;;;;;;;;;;;;;3.08;72.80;99295.66;4356883;32;33524;-85
2023/12/20 09:41:12;;;;;;;;;;;;;;;3.26;71.96;99293.25;4354953;32;34632;-84
2023/12/20 09:43:42;;;;;;;;;;;;;;;3.32;72.47;99290.78;4355364;32;34128;-83
2023/12/20 09:46:17;;;;;;;;;;;;;;;3.29;73.10;99285.63;4360706;32;33865;-83
2023/12/20 09:48:45;;;;;;;;;;;;;;;3.62;72.72;99291.87;4353912;32;33380;-83
2023/12/20 09:51:17;;;;;;;;;;;;;;;3.49;74.24;99290.94;4352216;32;33832;-83
2023/12/20 09:53:46;;;;;;;;;;;;;;;3.64;73.96;99285.06;4354794;32;34333;-83
2023/12/20 09:56:19;;;;;;;;;;;;;;;3.75;74.25;99277.47;4353089;32;33475;-83
2023/12/20 09:58:49;;;;;;;;;;;;;;;3.87;74.58;99281.81;4360941;32;32975;-83
2023/12/20 10:01:20;;;;;;;;;;;;;;;3.93;74.49;99269.87;4356031;32;35637;-82
2023/12/20 10:03:49;;;;;;;;;;;;;;;4.18;74.55;99265.78;4356356;32;34534;-84
2023/12/20 10:06:20;;;;;;;;;;;;;;;4.24;74.62;99268.38;4359238;32;33516;-83
2023/12/20 10:08:49;;;;;;;;;;;;;;;4.14;75.47;99265.75;4356248;32;33380;-85
2023/12/20 10:11:19;;;;;;;;;;;;;;;4.05;76.44;99258.84;4346973;32;33155;-85
2023/12/20 10:13:49;;;;;;;;;;;;;;;4.18;76.87;99258.09;4339890;33;34629;-83
2023/12/20 10:16:27;;;;;;;;;;;;;;;4.33;75.87;99248.75;4342288;33;34855;-82
2023/12/20 10:18:56;;;;;;;;;;;;;;;4.26;75.90;99251.25;4339750;33;33925;-82
2023/12/20 10:21:26;;;;;;;;;;;;;;;4.12;75.92;99241.78;4344666;33;34504;-82
2023/12/20 10:23:55;;;;;;;;;;;;;;;4.43;75.06;99237.66;4339589;33;33787;-81
2023/12/20 10:26:27;;;;;;;;;;;;;;;4.35;75.44;99235.06;4350331;32;33850;-82
2023/12/20 10:28:57;;;;;;;;;;;;;;;4.52;74.53;99242.84;4356452;32;33306;-85
2023/12/20 10:31:29;;;;;;;;;;;;;;;4.66;74.11;99237.72;4356178;32;33862;-81
2023/12/20 10:33:59;;;;;;;;;;;;;;;4.41;74.57;99232.50;4346992;32;33627;-82
2023/12/20 10:36:29;;;;;;;;;;;;;;;4.26;76.34;99233.28;4342277;32;35281;-83
2023/12/20 10:38:58;;;;;;;;;;;;;;;4.64;73.98;99217.19;4357142;32;33007;-82
2023/12/20 10:41:29;;;;;;;;;;;;;;;4.70;73.23;99216.34;4351833;32;33896;-83
2023/12/20 10:44:00;;;;;;;;;;;;;;;4.65;73.55;99231.72;4359379;32;33153;-84
2023/12/20 10:46:34;;;;;;;;;;;;;;;4.81;73.02;99240.38;4356765;32;35060;-84
2023/12/20 10:49:03;;;;;;;;;;;;;;;4.73;73.36;99236.91;4341370;33;32720;-83
2023/12/20 10:51:33;;;;;;;;;;;;;;;4.97;71.63;99225.81;4339992;33;34152;-82
2023/12/20 10:54:02;;;;;;;;;;;;;;;5.01;70.72;99219.84;4353655;32;33777;-82
2023/12/20 10:56:31;;;;;;;;;;;;;;;4.95;70.29;99217.25;4347587;32;32522;-83
2023/12/20 10:59:05;;;;;;;;;;;;;;;4.76;72.14;99229.22;4358871;32;32438;-83
2023/12/20 11:01:33;;;;;;;;;;;;;;;5.13;70.05;99219.84;4355721;32;33103;-82
2023/12/20 11:04:05;;;;;;;;;;;;;;;5.32;69.66;99222.44;4355121;32;33716;-83
2023/12/20 11:06:36;;;;;;;;;;;;;;;5.31;69.92;99218.13;4359719;32;34351;-83
2023/12/20 11:09:12;;;;;;;;;;;;;;;5.40;69.92;99219.88;4354909;32;33035;-82
2023/12/20 11:11:46;;;;;;;;;;;;;;;5.50;70.29;99206.16;4353291;32;34969;-82
2023/12/20 11:14:18;;;;;;;;;;;;;;;5.61;68.88;99196.72;4353963;32;34811;-85
2023/12/20 11:16:47;;;;;;;;;;;;;;;5.57;68.94;99193.25;4356865;32;34301;-82
2023/12/20 11:19:25;;;;;;;;;;;;;;;5.67;69.04;99188.97;4357339;32;32832;-85
2023/12/20 11:21:54;;;;;;;;;;;;;;;5.62;69.58;99182.12;4358186;32;32715;-83
2023/12/20 11:24:23;;;;;;;;;;;;;;;5.53;70.02;99165.84;4351825;32;34348;-84
2023/12/20 11:26:51;;;;;;;;;;;;;;;5.69;69.48;99156.38;4353499;32;34797;-86
2023/12/20 11:29:25;;;;;;;;;;;;;;;5.67;69.32;99157.22;4352269;32;34042;-87
2023/12/20 11:31:56;;;;;;;;;;;;;;;5.68;69.32;99149.53;4357713;32;36791;-86
2023/12/20 11:34:27;;;;;;;;;;;;;;;5.92;68.90;99145.16;4352909;32;34939;-81
2023/12/20 11:37:00;;;;;;;;;;;;;;;6.01;68.64;99132.28;4352307;32;33850;-82
2023/12/20 11:39:30;;;;;;;;;;;;;;;6.05;68.55;99141.72;4349966;32;32837;-82
2023/12/20 11:41:59;;;;;;;;;;;;;;;6.10;69.12;99149.44;4351335;32;34033;-83
2023/12/20 11:44:27;;;;;;;;;;;;;;;5.92;70.02;99146.03;4357434;32;34745;-81
2023/12/20 11:46:58;;;;;;;;;;;;;;;6.09;69.89;99142.53;4355890;32;33574;-84
2023/12/20 11:49:29;;;;;;;;;;;;;;;6.33;69.42;99134.75;4355884;32;33720;-82
2023/12/20 11:51:57;;;;;;;;;;;;;;;6.19;70.06;99128.78;4354934;32;33564;-83
2023/12/20 11:54:32;;;;;;;;;;;;;;;6.36;69.78;99134.72;4360112;32;34353;-84
2023/12/20 11:57:01;;;;;;;;;;;;;;;6.24;70.62;99128.78;4354597;32;33962;-83
2023/12/20 11:59:30;;;;;;;;;;;;;;;6.22;70.95;99128.78;4356324;32;33811;-83
2023/12/20 12:02:03;;;;;;;;;;;;;;;6.09;71.61;99125.41;4353014;32;33649;-83
2023/12/20 12:04:32;;;;;;;;;;;;;;;6.57;70.79;99128.59;4352336;32;33246;-82
2023/12/20 12:07:01;;;;;;;;;;;;;;;6.41;72.14;99124.37;4358718;32;34657;-82
2023/12/20 12:09:31;;;;;;;;;;;;;;;6.89;70.43;99113.78;4356259;32;32086;-82
2023/12/20 12:12:02;;;;;;;;;;;;;;;6.99;70.17;99113.69;4350415;32;33353;-84
2023/12/20 12:14:31;;;;;;;;;;;;;;;6.96;70.48;99102.50;4353931;32;34602;-82
2023/12/20 12:17:13;;;;;;;;;;;;;;;7.05;70.99;99105.03;4360134;32;33510;-82
2023/12/20 12:19:47;;;;;;;;;;;;;;;6.82;72.21;99100.91;4360391;32;33388;-83
2023/12/20 12:22:19;;;;;;;;;;;;;;;6.92;72.12;99096.53;4354680;32;34544;-84
2023/12/20 12:24:49;;;;;;;;;;;;;;;7.00;72.30;99101.63;4359026;32;34141;-84
2023/12/20 12:27:20;;;;;;;;;;;;;;;7.02;72.04;99105.06;4363961;32;33424;-84
2023/12/20 12:30:04;;;;;;;;;;;;;;;7.39;70.99;99120.19;4358357;32;33836;-86
2023/12/20 12:32:34;;;;;;;;;;;;;;;7.16;71.74;99110.09;4355518;32;34343;-84
2023/12/20 12:35:06;;;;;;;;;;;;;;;7.06;70.97;99119.66;4353503;32;33631;-85
2023/12/20 12:37:35;;;;;;;;;;;;;;;6.95;71.04;99109.41;4357394;32;33481;-87
2023/12/20 12:40:05;;;;;;;;;;;;;;;7.10;70.37;99115.31;4352590;32;33990;-85
2023/12/20 12:42:35;;;;;;;;;;;;;;;7.15;70.07;99100.63;4360113;32;33265;-84
2023/12/20 12:45:09;;;;;;;;;;;;;;;7.12;69.63;99117.00;4356533;32;34180;-85
2023/12/20 12:47:39;;;;;;;;;;;;;;;6.86;70.00;99109.47;4364013;32;33301;-87
2023/12/20 12:50:11;;;;;;;;;;;;;;;6.72;70.89;99119.06;4354835;32;32785;-89
2023/12/20 12:52:40;;;;;;;;;;;;;;;6.57;71.39;99114.81;4353326;32;33805;-85
2023/12/20 12:55:09;;;;;;;;;;;;;;;6.54;70.88;99120.84;4359005;32;34807;-88
2023/12/20 12:57:39;;;;;;;;;;;;;;;6.66;70.82;99117.34;4356210;32;33892;-85
2023/12/20 13:00:13;;;;;;;;;;;;;;;6.77;69.96;99118.16;4356051;32;34138;-87
2023/12/20 13:02:43;;;;;;;;;;;;;;;6.54;70.61;99107.13;4357210;32;34719;-87
2023/12/20 13:05:14;;;;;;;;;;;;;;;6.58;69.90;99106.25;4361053;32;34146;-90
2023/12/20 13:07:45;;;;;;;;;;;;;;;6.16;70.84;99105.59;4350340;32;35287;-86
2023/12/20 13:10:17;;;;;;;;;;;;;;;6.13;71.06;99103.91;4341901;33;32926;-86
2023/12/20 13:12:45;;;;;;;;;;;;;;;5.95;71.48;99110.00;4353385;32;33787;-88
2023/12/20 13:15:18;;;;;;;;;;;;;;;5.86;71.67;99124.59;4358548;32;34212;-88
2023/12/20 13:17:48;;;;;;;;;;;;;;;6.17;70.77;99110.75;4347743;32;33645;-89
2023/12/20 13:20:18;;;;;;;;;;;;;;;5.95;71.50;99112.56;4358063;32;32042;-85
2023/12/20 13:22:47;;;;;;;;;;;;;;;6.02;70.99;99108.25;4355977;32;33493;-86